sensor_id;sensor_type;location;lat;lon;timestamp;P1;durP1;ratioP1;P2;durP2;ratioP2
72209;SDS011;60113;48.762;12.302;2024-03-02T00:01:51;429.15;;;152.77;;
72209;SDS011;60113;48.762;12.302;2024-03-02T00:04:16;424.20;;;153.63;;
72209;SDS011;60113;48.762;12.302;2024-03-02T00:06:42;521.72;;;161.02;;
72209;SDS011;60113;48.762;12.302;2024-03-02T00:09:08;434.20;;;151.27;;
72209;SDS011;60113;48.762;12.302;2024-03-02T00:11:37;473.67;;;157.85;;
72209;SDS011;60113;48.762;12.302;2024-03-02T00:14:03;515.67;;;164.43;;
72209;SDS011;60113;48.762;12.302;2024-03-02T00:16:31;451.42;;;152.23;;
72209;SDS011;60113;48.762;12.302;2024-03-02T00:19:03;427.55;;;152.30;;
72209;SDS011;60113;48.762;12.302;2024-03-02T00:21:31;445.45;;;145.13;;
72209;SDS011;60113;48.762;12.302;2024-03-02T00:23:58;427.55;;;148.65;;
72209;SDS011;60113;48.762;12.302;2024-03-02T00:26:25;420.77;;;147.52;;
72209;SDS011;60113;48.762;12.302;2024-03-02T00:28:51;414.35;;;146.43;;
72209;SDS011;60113;48.762;12.302;2024-03-02T00:31:22;447.45;;;153.45;;
72209;SDS011;60113;48.762;12.302;2024-03-02T00:33:48;449.45;;;153.77;;
72209;SDS011;60113;48.762;12.302;2024-03-02T00:36:21;417.65;;;147.13;;
72209;SDS011;60113;48.762;12.302;2024-03-02T00:38:50;416.30;;;149.63;;
72209;SDS011;60113;48.762;12.302;2024-03-02T00:41:22;406.95;;;150.98;;
72209;SDS011;60113;48.762;12.302;2024-03-02T00:44:05;409.13;;;148.68;;
72209;SDS011;60113;48.762;12.302;2024-03-02T00:46:35;435.58;;;153.05;;
72209;SDS011;60113;48.762;12.302;2024-03-02T00:49:03;422.80;;;147.57;;
72209;SDS011;60113;48.762;12.302;2024-03-02T00:51:32;398.85;;;143.85;;
72209;SDS011;60113;48.762;12.302;2024-03-02T00:54:00;403.30;;;142.45;;
72209;SDS011;60113;48.762;12.302;2024-03-02T00:56:29;428.63;;;143.95;;
72209;SDS011;60113;48.762;12.302;2024-03-02T00:58:55;424.88;;;144.45;;
72209;SDS011;60113;48.762;12.302;2024-03-02T01:01:21;405.92;;;142.55;;
72209;SDS011;60113;48.762;12.302;2024-03-02T01:03:47;408.38;;;147.18;;
72209;SDS011;60113;48.762;12.302;2024-03-02T01:06:14;405.08;;;147.60;;
72209;SDS011;60113;48.762;12.302;2024-03-02T01:08:40;469.13;;;154.27;;
72209;SDS011;60113;48.762;12.302;2024-03-02T01:11:06;410.88;;;145.18;;
72209;SDS011;60113;48.762;12.302;2024-03-02T01:13:31;415.02;;;147.80;;
72209;SDS011;60113;48.762;12.302;2024-03-02T01:15:57;409.55;;;145.20;;
72209;SDS011;60113;48.762;12.302;2024-03-02T01:18:23;427.80;;;143.93;;
72209;SDS011;60113;48.762;12.302;2024-03-02T01:20:49;390.80;;;139.18;;
72209;SDS011;60113;48.762;12.302;2024-03-02T01:23:17;401.90;;;140.10;;
72209;SDS011;60113;48.762;12.302;2024-03-02T01:25:44;408.55;;;141.45;;
72209;SDS011;60113;48.762;12.302;2024-03-02T01:28:11;402.20;;;139.90;;
72209;SDS011;60113;48.762;12.302;2024-03-02T01:30:36;414.45;;;138.95;;
72209;SDS011;60113;48.762;12.302;2024-03-02T01:33:01;392.27;;;139.38;;
72209;SDS011;60113;48.762;12.302;2024-03-02T01:35:27;396.88;;;139.75;;
72209;SDS011;60113;48.762;12.302;2024-03-02T01:37:53;383.80;;;136.13;;
72209;SDS011;60113;48.762;12.302;2024-03-02T01:40:19;397.73;;;139.00;;
72209;SDS011;60113;48.762;12.302;2024-03-02T01:42:45;379.30;;;135.60;;
72209;SDS011;60113;48.762;12.302;2024-03-02T01:45:10;380.27;;;136.40;;
72209;SDS011;60113;48.762;12.302;2024-03-02T01:47:36;485.63;;;141.02;;
72209;SDS011;60113;48.762;12.302;2024-03-02T01:50:01;375.17;;;133.82;;
72209;SDS011;60113;48.762;12.302;2024-03-02T01:52:27;365.27;;;132.48;;
72209;SDS011;60113;48.762;12.302;2024-03-02T01:54:52;369.35;;;135.73;;
72209;SDS011;60113;48.762;12.302;2024-03-02T01:57:18;377.08;;;136.00;;
72209;SDS011;60113;48.762;12.302;2024-03-02T01:59:45;373.67;;;133.35;;
72209;SDS011;60113;48.762;12.302;2024-03-02T02:02:13;392.98;;;133.77;;
72209;SDS011;60113;48.762;12.302;2024-03-02T02:04:39;376.20;;;134.18;;
72209;SDS011;60113;48.762;12.302;2024-03-02T02:07:04;439.25;;;138.60;;
72209;SDS011;60113;48.762;12.302;2024-03-02T02:09:31;420.85;;;142.85;;
72209;SDS011;60113;48.762;12.302;2024-03-02T02:11:57;397.98;;;138.52;;
72209;SDS011;60113;48.762;12.302;2024-03-02T02:14:23;439.10;;;146.88;;
72209;SDS011;60113;48.762;12.302;2024-03-02T02:16:48;448.48;;;147.20;;
72209;SDS011;60113;48.762;12.302;2024-03-02T02:19:14;457.15;;;144.85;;
72209;SDS011;60113;48.762;12.302;2024-03-02T02:21:42;356.13;;;129.65;;
72209;SDS011;60113;48.762;12.302;2024-03-02T02:24:08;393.27;;;140.23;;
72209;SDS011;60113;48.762;12.302;2024-03-02T02:26:33;401.75;;;138.50;;
72209;SDS011;60113;48.762;12.302;2024-03-02T02:28:58;424.05;;;147.25;;
72209;SDS011;60113;48.762;12.302;2024-03-02T02:31:24;460.27;;;149.32;;
72209;SDS011;60113;48.762;12.302;2024-03-02T02:33:49;448.27;;;150.43;;
72209;SDS011;60113;48.762;12.302;2024-03-02T02:36:15;432.15;;;150.27;;
72209;SDS011;60113;48.762;12.302;2024-03-02T02:38:42;556.20;;;164.02;;
72209;SDS011;60113;48.762;12.302;2024-03-02T02:41:10;523.70;;;161.13;;
72209;SDS011;60113;48.762;12.302;2024-03-02T02:43:36;495.27;;;158.05;;
72209;SDS011;60113;48.762;12.302;2024-03-02T02:46:01;526.20;;;159.75;;
72209;SDS011;60113;48.762;12.302;2024-03-02T02:48:27;465.85;;;150.27;;
72209;SDS011;60113;48.762;12.302;2024-03-02T02:50:52;475.23;;;156.75;;
72209;SDS011;60113;48.762;12.302;2024-03-02T02:53:17;472.73;;;152.95;;
72209;SDS011;60113;48.762;12.302;2024-03-02T02:55:43;458.30;;;147.18;;
72209;SDS011;60113;48.762;12.302;2024-03-02T02:58:11;453.25;;;150.13;;
72209;SDS011;60113;48.762;12.302;2024-03-02T03:00:37;454.67;;;149.13;;
72209;SDS011;60113;48.762;12.302;2024-03-02T03:03:02;428.17;;;141.50;;
72209;SDS011;60113;48.762;12.302;2024-03-02T03:05:28;503.00;;;157.00;;
72209;SDS011;60113;48.762;12.302;2024-03-02T03:07:54;468.95;;;151.48;;
72209;SDS011;60113;48.762;12.302;2024-03-02T03:10:19;422.33;;;144.55;;
72209;SDS011;60113;48.762;12.302;2024-03-02T03:12:47;456.08;;;148.32;;
72209;SDS011;60113;48.762;12.302;2024-03-02T03:15:12;493.88;;;154.07;;
72209;SDS011;60113;48.762;12.302;2024-03-02T03:17:39;445.55;;;142.43;;
72209;SDS011;60113;48.762;12.302;2024-03-02T03:20:05;490.63;;;147.82;;
72209;SDS011;60113;48.762;12.302;2024-03-02T03:22:34;400.40;;;137.07;;
72209;SDS011;60113;48.762;12.302;2024-03-02T03:25:00;456.60;;;143.98;;
72209;SDS011;60113;48.762;12.302;2024-03-02T03:27:25;405.88;;;136.93;;
72209;SDS011;60113;48.762;12.302;2024-03-02T03:29:51;413.20;;;139.82;;
72209;SDS011;60113;48.762;12.302;2024-03-02T03:32:17;465.65;;;144.05;;
72209;SDS011;60113;48.762;12.302;2024-03-02T03:34:42;382.63;;;134.50;;
72209;SDS011;60113;48.762;12.302;2024-03-02T03:37:08;388.70;;;136.13;;
72209;SDS011;60113;48.762;12.302;2024-03-02T03:39:34;389.50;;;133.45;;
72209;SDS011;60113;48.762;12.302;2024-03-02T03:42:03;491.50;;;146.07;;
72209;SDS011;60113;48.762;12.302;2024-03-02T03:44:29;432.67;;;136.55;;
72209;SDS011;60113;48.762;12.302;2024-03-02T03:46:54;494.73;;;146.43;;
72209;SDS011;60113;48.762;12.302;2024-03-02T03:49:20;456.08;;;140.02;;
72209;SDS011;60113;48.762;12.302;2024-03-02T03:51:46;525.03;;;148.13;;
72209;SDS011;60113;48.762;12.302;2024-03-02T03:54:11;579.30;;;161.25;;
72209;SDS011;60113;48.762;12.302;2024-03-02T03:56:37;490.35;;;152.65;;
72209;SDS011;60113;48.762;12.302;2024-03-02T03:59:02;634.53;;;185.48;;
72209;SDS011;60113;48.762;12.302;2024-03-02T04:01:29;518.22;;;161.13;;
72209;SDS011;60113;48.762;12.302;2024-03-02T04:03:55;487.48;;;156.80;;
72209;SDS011;60113;48.762;12.302;2024-03-02T04:06:20;424.70;;;145.07;;
72209;SDS011;60113;48.762;12.302;2024-03-02T04:08:46;522.83;;;160.05;;
72209;SDS011;60113;48.762;12.302;2024-03-02T04:11:11;433.23;;;145.20;;
72209;SDS011;60113;48.762;12.302;2024-03-02T04:13:36;425.58;;;143.48;;
72209;SDS011;60113;48.762;12.302;2024-03-02T04:16:02;475.92;;;151.25;;
72209;SDS011;60113;48.762;12.302;2024-03-02T04:18:29;477.40;;;153.63;;
72209;SDS011;60113;48.762;12.302;2024-03-02T04:20:54;440.65;;;148.93;;
72209;SDS011;60113;48.762;12.302;2024-03-02T04:23:19;481.77;;;158.98;;
72209;SDS011;60113;48.762;12.302;2024-03-02T04:25:45;496.02;;;158.95;;
72209;SDS011;60113;48.762;12.302;2024-03-02T04:28:10;536.88;;;167.57;;
72209;SDS011;60113;48.762;12.302;2024-03-02T04:30:37;565.38;;;170.75;;
72209;SDS011;60113;48.762;12.302;2024-03-02T04:33:03;460.88;;;160.10;;
72209;SDS011;60113;48.762;12.302;2024-03-02T04:35:28;570.17;;;169.65;;
72209;SDS011;60113;48.762;12.302;2024-03-02T04:37:54;495.90;;;159.50;;
72209;SDS011;60113;48.762;12.302;2024-03-02T04:40:19;483.98;;;157.45;;
72209;SDS011;60113;48.762;12.302;2024-03-02T04:42:45;519.40;;;161.32;;
72209;SDS011;60113;48.762;12.302;2024-03-02T04:45:10;544.20;;;165.38;;
72209;SDS011;60113;48.762;12.302;2024-03-02T04:47:35;521.08;;;160.50;;
72209;SDS011;60113;48.762;12.302;2024-03-02T04:50:01;455.98;;;146.93;;
72209;SDS011;60113;48.762;12.302;2024-03-02T04:52:26;467.20;;;150.25;;
72209;SDS011;60113;48.762;12.302;2024-03-02T04:54:52;497.20;;;160.85;;
72209;SDS011;60113;48.762;12.302;2024-03-02T04:57:36;650.60;;;189.90;;
72209;SDS011;60113;48.762;12.302;2024-03-02T05:00:02;614.30;;;190.35;;
72209;SDS011;60113;48.762;12.302;2024-03-02T05:02:32;750.20;;;208.10;;
72209;SDS011;60113;48.762;12.302;2024-03-02T05:04:57;638.58;;;197.50;;
72209;SDS011;60113;48.762;12.302;2024-03-02T05:07:23;585.20;;;184.38;;
72209;SDS011;60113;48.762;12.302;2024-03-02T05:09:48;653.17;;;199.63;;
72209;SDS011;60113;48.762;12.302;2024-03-02T05:12:14;650.17;;;194.93;;
72209;SDS011;60113;48.762;12.302;2024-03-02T05:15:14;612.55;;;189.43;;
72209;SDS011;60113;48.762;12.302;2024-03-02T05:17:40;534.63;;;173.27;;
72209;SDS011;60113;48.762;12.302;2024-03-02T05:20:08;553.65;;;174.20;;
72209;SDS011;60113;48.762;12.302;2024-03-02T05:22:34;563.80;;;177.25;;
72209;SDS011;60113;48.762;12.302;2024-03-02T05:25:01;524.45;;;170.77;;
72209;SDS011;60113;48.762;12.302;2024-03-02T05:27:29;516.70;;;167.88;;
72209;SDS011;60113;48.762;12.302;2024-03-02T05:29:54;484.83;;;162.15;;
72209;SDS011;60113;48.762;12.302;2024-03-02T05:32:20;481.05;;;161.23;;
72209;SDS011;60113;48.762;12.302;2024-03-02T05:34:45;557.63;;;173.98;;
72209;SDS011;60113;48.762;12.302;2024-03-02T05:37:10;552.58;;;171.45;;
72209;SDS011;60113;48.762;12.302;2024-03-02T05:39:36;601.20;;;175.73;;
72209;SDS011;60113;48.762;12.302;2024-03-02T05:42:01;523.45;;;167.00;;
72209;SDS011;60113;48.762;12.302;2024-03-02T05:44:28;547.40;;;166.00;;
72209;SDS011;60113;48.762;12.302;2024-03-02T05:46:53;647.85;;;185.95;;
72209;SDS011;60113;48.762;12.302;2024-03-02T05:49:19;563.38;;;175.02;;
72209;SDS011;60113;48.762;12.302;2024-03-02T05:51:44;656.58;;;189.55;;
72209;SDS011;60113;48.762;12.302;2024-03-02T05:54:09;631.78;;;185.65;;
72209;SDS011;60113;48.762;12.302;2024-03-02T05:56:35;735.28;;;203.68;;
72209;SDS011;60113;48.762;12.302;2024-03-02T05:59:01;520.60;;;167.32;;
72209;SDS011;60113;48.762;12.302;2024-03-02T06:01:39;591.13;;;175.15;;
72209;SDS011;60113;48.762;12.302;2024-03-02T06:04:06;801.92;;;208.25;;
72209;SDS011;60113;48.762;12.302;2024-03-02T06:06:31;672.13;;;190.10;;
72209;SDS011;60113;48.762;12.302;2024-03-02T06:08:59;896.90;;;222.02;;
72209;SDS011;60113;48.762;12.302;2024-03-02T06:11:25;986.65;;;232.65;;
72209;SDS011;60113;48.762;12.302;2024-03-02T06:13:50;1300.05;;;255.35;;
72209;SDS011;60113;48.762;12.302;2024-03-02T06:16:15;984.15;;;223.95;;
72209;SDS011;60113;48.762;12.302;2024-03-02T06:18:41;639.90;;;184.02;;
72209;SDS011;60113;48.762;12.302;2024-03-02T06:21:06;627.30;;;184.63;;
72209;SDS011;60113;48.762;12.302;2024-03-02T06:23:32;524.30;;;172.27;;
72209;SDS011;60113;48.762;12.302;2024-03-02T06:25:57;628.17;;;183.82;;
72209;SDS011;60113;48.762;12.302;2024-03-02T06:28:23;538.95;;;165.40;;
72209;SDS011;60113;48.762;12.302;2024-03-02T06:30:48;485.55;;;159.57;;
72209;SDS011;60113;48.762;12.302;2024-03-02T06:33:14;459.20;;;150.45;;
72209;SDS011;60113;48.762;12.302;2024-03-02T06:35:40;464.60;;;150.85;;
72209;SDS011;60113;48.762;12.302;2024-03-02T06:38:06;434.08;;;143.63;;
72209;SDS011;60113;48.762;12.302;2024-03-02T06:40:31;417.60;;;141.32;;
72209;SDS011;60113;48.762;12.302;2024-03-02T06:42:57;443.50;;;143.75;;
72209;SDS011;60113;48.762;12.302;2024-03-02T06:45:22;460.83;;;144.70;;
72209;SDS011;60113;48.762;12.302;2024-03-02T06:47:48;397.83;;;136.57;;
72209;SDS011;60113;48.762;12.302;2024-03-02T06:50:14;366.15;;;130.85;;
72209;SDS011;60113;48.762;12.302;2024-03-02T06:52:39;364.50;;;127.22;;
72209;SDS011;60113;48.762;12.302;2024-03-02T06:55:05;381.63;;;128.75;;
72209;SDS011;60113;48.762;12.302;2024-03-02T06:57:31;317.02;;;119.18;;
72209;SDS011;60113;48.762;12.302;2024-03-02T06:59:56;308.88;;;114.10;;
72209;SDS011;60113;48.762;12.302;2024-03-02T07:02:26;295.38;;;113.55;;
72209;SDS011;60113;48.762;12.302;2024-03-02T07:04:55;246.95;;;102.65;;
72209;SDS011;60113;48.762;12.302;2024-03-02T07:07:20;251.60;;;102.57;;
72209;SDS011;60113;48.762;12.302;2024-03-02T07:09:46;225.18;;;96.55;;
72209;SDS011;60113;48.762;12.302;2024-03-02T07:12:12;207.30;;;91.88;;
72209;SDS011;60113;48.762;12.302;2024-03-02T07:14:37;193.32;;;86.85;;
72209;SDS011;60113;48.762;12.302;2024-03-02T07:17:21;185.65;;;86.68;;
72209;SDS011;60113;48.762;12.302;2024-03-02T07:19:46;165.32;;;79.45;;
72209;SDS011;60113;48.762;12.302;2024-03-02T07:22:12;150.68;;;74.30;;
72209;SDS011;60113;48.762;12.302;2024-03-02T07:25:03;144.00;;;72.95;;
72209;SDS011;60113;48.762;12.302;2024-03-02T07:27:29;154.00;;;75.40;;
72209;SDS011;60113;48.762;12.302;2024-03-02T07:29:56;165.05;;;78.35;;
72209;SDS011;60113;48.762;12.302;2024-03-02T07:32:23;144.82;;;70.60;;
72209;SDS011;60113;48.762;12.302;2024-03-02T07:34:49;154.77;;;73.97;;
72209;SDS011;60113;48.762;12.302;2024-03-02T07:37:16;132.35;;;68.25;;
72209;SDS011;60113;48.762;12.302;2024-03-02T07:39:41;137.20;;;69.70;;
72209;SDS011;60113;48.762;12.302;2024-03-02T07:42:08;123.72;;;64.95;;
72209;SDS011;60113;48.762;12.302;2024-03-02T07:44:34;125.70;;;65.05;;
72209;SDS011;60113;48.762;12.302;2024-03-02T07:46:59;120.00;;;62.65;;
72209;SDS011;60113;48.762;12.302;2024-03-02T07:49:25;113.70;;;61.35;;
72209;SDS011;60113;48.762;12.302;2024-03-02T07:51:50;102.53;;;57.20;;
72209;SDS011;60113;48.762;12.302;2024-03-02T07:54:15;97.75;;;56.55;;
72209;SDS011;60113;48.762;12.302;2024-03-02T07:56:41;93.53;;;56.08;;
72209;SDS011;60113;48.762;12.302;2024-03-02T07:59:06;92.53;;;55.35;;
72209;SDS011;60113;48.762;12.302;2024-03-02T08:01:32;95.03;;;54.45;;
72209;SDS011;60113;48.762;12.302;2024-03-02T08:03:58;90.25;;;53.33;;
72209;SDS011;60113;48.762;12.302;2024-03-02T08:06:25;100.15;;;58.13;;
72209;SDS011;60113;48.762;12.302;2024-03-02T08:08:59;102.43;;;58.10;;
72209;SDS011;60113;48.762;12.302;2024-03-02T08:11:25;112.30;;;58.85;;
72209;SDS011;60113;48.762;12.302;2024-03-02T08:13:56;97.15;;;53.75;;
72209;SDS011;60113;48.762;12.302;2024-03-02T08:16:22;98.90;;;58.00;;
72209;SDS011;60113;48.762;12.302;2024-03-02T08:18:49;93.63;;;54.17;;
72209;SDS011;60113;48.762;12.302;2024-03-02T08:21:14;91.05;;;53.78;;
72209;SDS011;60113;48.762;12.302;2024-03-02T08:23:41;96.53;;;54.08;;
72209;SDS011;60113;48.762;12.302;2024-03-02T08:26:08;98.22;;;54.63;;
72209;SDS011;60113;48.762;12.302;2024-03-02T08:28:34;97.93;;;54.95;;
72209;SDS011;60113;48.762;12.302;2024-03-02T08:31:00;100.60;;;55.70;;
72209;SDS011;60113;48.762;12.302;2024-03-02T08:33:25;102.82;;;56.88;;
72209;SDS011;60113;48.762;12.302;2024-03-02T08:35:50;104.47;;;57.58;;
72209;SDS011;60113;48.762;12.302;2024-03-02T08:38:16;107.35;;;56.88;;
72209;SDS011;60113;48.762;12.302;2024-03-02T08:40:42;104.70;;;57.88;;
72209;SDS011;60113;48.762;12.302;2024-03-02T08:43:09;95.00;;;54.45;;
72209;SDS011;60113;48.762;12.302;2024-03-02T08:45:34;86.07;;;50.33;;
72209;SDS011;60113;48.762;12.302;2024-03-02T08:48:00;85.50;;;51.05;;
72209;SDS011;60113;48.762;12.302;2024-03-02T08:50:26;89.43;;;50.58;;
72209;SDS011;60113;48.762;12.302;2024-03-02T08:52:51;97.00;;;51.17;;
72209;SDS011;60113;48.762;12.302;2024-03-02T08:55:17;86.70;;;49.67;;
72209;SDS011;60113;48.762;12.302;2024-03-02T08:57:42;89.25;;;51.45;;
72209;SDS011;60113;48.762;12.302;2024-03-02T09:00:08;83.55;;;49.40;;
72209;SDS011;60113;48.762;12.302;2024-03-02T09:02:36;85.93;;;49.03;;
72209;SDS011;60113;48.762;12.302;2024-03-02T09:05:01;68.47;;;43.85;;
72209;SDS011;60113;48.762;12.302;2024-03-02T09:07:27;61.42;;;39.85;;
72209;SDS011;60113;48.762;12.302;2024-03-02T09:09:53;64.03;;;40.97;;
72209;SDS011;60113;48.762;12.302;2024-03-02T09:12:18;62.17;;;40.45;;
72209;SDS011;60113;48.762;12.302;2024-03-02T09:14:44;64.78;;;39.67;;
72209;SDS011;60113;48.762;12.302;2024-03-02T09:17:11;67.20;;;40.60;;
72209;SDS011;60113;48.762;12.302;2024-03-02T09:19:38;74.43;;;42.60;;
72209;SDS011;60113;48.762;12.302;2024-03-02T09:22:04;68.20;;;42.40;;
72209;SDS011;60113;48.762;12.302;2024-03-02T09:24:31;65.55;;;40.35;;
72209;SDS011;60113;48.762;12.302;2024-03-02T09:26:59;68.47;;;42.00;;
72209;SDS011;60113;48.762;12.302;2024-03-02T09:29:25;63.22;;;40.85;;
72209;SDS011;60113;48.762;12.302;2024-03-02T09:31:50;66.78;;;41.42;;
72209;SDS011;60113;48.762;12.302;2024-03-02T09:34:16;80.32;;;44.03;;
72209;SDS011;60113;48.762;12.302;2024-03-02T09:36:42;77.68;;;44.75;;
72209;SDS011;60113;48.762;12.302;2024-03-02T09:39:08;73.28;;;44.60;;
72209;SDS011;60113;48.762;12.302;2024-03-02T09:41:34;79.20;;;45.88;;
72209;SDS011;60113;48.762;12.302;2024-03-02T09:44:02;79.45;;;47.03;;
72209;SDS011;60113;48.762;12.302;2024-03-02T09:46:27;76.40;;;44.60;;
72209;SDS011;60113;48.762;12.302;2024-03-02T09:48:53;78.90;;;46.50;;
72209;SDS011;60113;48.762;12.302;2024-03-02T09:51:19;82.43;;;46.30;;
72209;SDS011;60113;48.762;12.302;2024-03-02T09:53:45;77.85;;;46.92;;
72209;SDS011;60113;48.762;12.302;2024-03-02T09:56:12;89.45;;;49.83;;
72209;SDS011;60113;48.762;12.302;2024-03-02T09:58:38;86.28;;;48.75;;
72209;SDS011;60113;48.762;12.302;2024-03-02T10:01:05;83.70;;;48.13;;
72209;SDS011;60113;48.762;12.302;2024-03-02T10:03:31;78.07;;;45.90;;
72209;SDS011;60113;48.762;12.302;2024-03-02T10:06:17;76.40;;;44.60;;
72209;SDS011;60113;48.762;12.302;2024-03-02T10:08:53;70.68;;;42.47;;
72209;SDS011;60113;48.762;12.302;2024-03-02T10:14:12;75.13;;;42.53;;
72209;SDS011;60113;48.762;12.302;2024-03-02T10:16:39;74.03;;;43.93;;
72209;SDS011;60113;48.762;12.302;2024-03-02T10:19:19;74.53;;;42.88;;
72209;SDS011;60113;48.762;12.302;2024-03-02T10:21:46;68.10;;;41.42;;
72209;SDS011;60113;48.762;12.302;2024-03-02T10:26:45;73.13;;;41.35;;
72209;SDS011;60113;48.762;12.302;2024-03-02T10:29:10;72.03;;;42.47;;
72209;SDS011;60113;48.762;12.302;2024-03-02T10:31:40;69.20;;;40.63;;
72209;SDS011;60113;48.762;12.302;2024-03-02T10:34:07;73.25;;;42.35;;
72209;SDS011;60113;48.762;12.302;2024-03-02T10:36:33;71.32;;;42.63;;
72209;SDS011;60113;48.762;12.302;2024-03-02T10:39:05;73.68;;;41.22;;
72209;SDS011;60113;48.762;12.302;2024-03-02T10:41:32;64.57;;;39.45;;
72209;SDS011;60113;48.762;12.302;2024-03-02T10:44:00;65.72;;;38.42;;
72209;SDS011;60113;48.762;12.302;2024-03-02T10:46:28;71.90;;;41.70;;
72209;SDS011;60113;48.762;12.302;2024-03-02T10:48:55;73.75;;;42.08;;
72209;SDS011;60113;48.762;12.302;2024-03-02T10:51:24;80.30;;;44.40;;
72209;SDS011;60113;48.762;12.302;2024-03-02T10:53:56;76.32;;;44.33;;
72209;SDS011;60113;48.762;12.302;2024-03-02T10:56:32;77.15;;;43.70;;
72209;SDS011;60113;48.762;12.302;2024-03-02T10:59:06;80.38;;;44.60;;
72209;SDS011;60113;48.762;12.302;2024-03-02T11:01:51;80.15;;;45.53;;
72209;SDS011;60113;48.762;12.302;2024-03-02T11:04:21;77.05;;;44.22;;
72209;SDS011;60113;48.762;12.302;2024-03-02T11:06:49;72.00;;;42.40;;
72209;SDS011;60113;48.762;12.302;2024-03-02T11:09:17;73.53;;;42.78;;
72209;SDS011;60113;48.762;12.302;2024-03-02T11:11:45;74.50;;;42.20;;
72209;SDS011;60113;48.762;12.302;2024-03-02T11:14:21;72.00;;;42.00;;
72209;SDS011;60113;48.762;12.302;2024-03-02T11:16:49;70.75;;;42.47;;
72209;SDS011;60113;48.762;12.302;2024-03-02T11:19:16;76.55;;;41.40;;
72209;SDS011;60113;48.762;12.302;2024-03-02T11:21:43;70.15;;;39.08;;
72209;SDS011;60113;48.762;12.302;2024-03-02T11:26:52;61.77;;;37.77;;
72209;SDS011;60113;48.762;12.302;2024-03-02T11:32:03;65.57;;;39.80;;
72209;SDS011;60113;48.762;12.302;2024-03-02T11:34:33;63.33;;;37.10;;
72209;SDS011;60113;48.762;12.302;2024-03-02T11:37:03;60.30;;;37.53;;
72209;SDS011;60113;48.762;12.302;2024-03-02T11:39:29;67.82;;;39.25;;
72209;SDS011;60113;48.762;12.302;2024-03-02T11:41:56;62.50;;;37.33;;
72209;SDS011;60113;48.762;12.302;2024-03-02T11:44:24;69.47;;;39.22;;
72209;SDS011;60113;48.762;12.302;2024-03-02T11:46:52;61.33;;;38.65;;
72209;SDS011;60113;48.762;12.302;2024-03-02T11:49:36;64.90;;;38.53;;
72209;SDS011;60113;48.762;12.302;2024-03-02T11:52:10;66.32;;;37.83;;
72209;SDS011;60113;48.762;12.302;2024-03-02T11:54:37;58.85;;;35.53;;
72209;SDS011;60113;48.762;12.302;2024-03-02T11:57:11;58.78;;;35.13;;
72209;SDS011;60113;48.762;12.302;2024-03-02T11:59:37;56.35;;;35.85;;
72209;SDS011;60113;48.762;12.302;2024-03-02T12:02:03;62.50;;;36.72;;
72209;SDS011;60113;48.762;12.302;2024-03-02T12:04:29;55.47;;;34.47;;
72209;SDS011;60113;48.762;12.302;2024-03-02T12:07:01;59.47;;;36.28;;
72209;SDS011;60113;48.762;12.302;2024-03-02T12:09:27;56.92;;;35.13;;
72209;SDS011;60113;48.762;12.302;2024-03-02T12:12:01;56.90;;;36.03;;
72209;SDS011;60113;48.762;12.302;2024-03-02T12:14:38;54.72;;;33.55;;
72209;SDS011;60113;48.762;12.302;2024-03-02T12:17:04;55.95;;;35.70;;
72209;SDS011;60113;48.762;12.302;2024-03-02T12:19:30;55.42;;;35.10;;
72209;SDS011;60113;48.762;12.302;2024-03-02T12:21:57;56.88;;;35.97;;
72209;SDS011;60113;48.762;12.302;2024-03-02T12:24:23;53.13;;;35.08;;
72209;SDS011;60113;48.762;12.302;2024-03-02T12:26:50;54.15;;;34.05;;
72209;SDS011;60113;48.762;12.302;2024-03-02T12:29:16;55.65;;;33.97;;
72209;SDS011;60113;48.762;12.302;2024-03-02T12:31:43;57.42;;;35.67;;
72209;SDS011;60113;48.762;12.302;2024-03-02T12:34:12;58.50;;;34.28;;
72209;SDS011;60113;48.762;12.302;2024-03-02T12:36:40;65.55;;;36.83;;
72209;SDS011;60113;48.762;12.302;2024-03-02T12:39:07;59.53;;;35.53;;
72209;SDS011;60113;48.762;12.302;2024-03-02T12:41:35;60.92;;;36.53;;
72209;SDS011;60113;48.762;12.302;2024-03-02T12:44:02;56.70;;;35.78;;
72209;SDS011;60113;48.762;12.302;2024-03-02T12:46:28;55.30;;;34.58;;
72209;SDS011;60113;48.762;12.302;2024-03-02T12:48:54;56.92;;;35.38;;
72209;SDS011;60113;48.762;12.302;2024-03-02T12:51:19;54.85;;;33.58;;
72209;SDS011;60113;48.762;12.302;2024-03-02T12:53:45;50.30;;;32.38;;
72209;SDS011;60113;48.762;12.302;2024-03-02T12:56:10;50.58;;;31.42;;
72209;SDS011;60113;48.762;12.302;2024-03-02T12:58:39;51.45;;;30.98;;
72209;SDS011;60113;48.762;12.302;2024-03-02T13:01:07;49.42;;;31.45;;
72209;SDS011;60113;48.762;12.302;2024-03-02T13:03:37;53.72;;;33.58;;
72209;SDS011;60113;48.762;12.302;2024-03-02T13:06:04;52.05;;;30.98;;
72209;SDS011;60113;48.762;12.302;2024-03-02T13:08:31;49.83;;;31.90;;
72209;SDS011;60113;48.762;12.302;2024-03-02T13:10:57;48.58;;;31.77;;
72209;SDS011;60113;48.762;12.302;2024-03-02T13:13:22;52.03;;;30.73;;
72209;SDS011;60113;48.762;12.302;2024-03-02T13:15:48;51.25;;;31.52;;
72209;SDS011;60113;48.762;12.302;2024-03-02T13:18:13;51.78;;;31.33;;
72209;SDS011;60113;48.762;12.302;2024-03-02T13:20:39;48.58;;;31.58;;
72209;SDS011;60113;48.762;12.302;2024-03-02T13:23:05;52.40;;;31.27;;
72209;SDS011;60113;48.762;12.302;2024-03-02T13:25:31;47.88;;;29.90;;
72209;SDS011;60113;48.762;12.302;2024-03-02T13:27:57;45.38;;;28.92;;
72209;SDS011;60113;48.762;12.302;2024-03-02T13:30:23;44.92;;;27.63;;
72209;SDS011;60113;48.762;12.302;2024-03-02T13:32:48;42.53;;;27.38;;
72209;SDS011;60113;48.762;12.302;2024-03-02T13:35:14;46.67;;;28.70;;
72209;SDS011;60113;48.762;12.302;2024-03-02T13:37:39;43.28;;;27.90;;
72209;SDS011;60113;48.762;12.302;2024-03-02T13:40:05;42.42;;;28.08;;
72209;SDS011;60113;48.762;12.302;2024-03-02T13:42:31;44.80;;;28.33;;
72209;SDS011;60113;48.762;12.302;2024-03-02T13:44:56;42.70;;;26.95;;
72209;SDS011;60113;48.762;12.302;2024-03-02T13:47:22;38.65;;;26.17;;
72209;SDS011;60113;48.762;12.302;2024-03-02T13:49:47;40.92;;;24.80;;
72209;SDS011;60113;48.762;12.302;2024-03-02T13:52:14;41.55;;;26.25;;
72209;SDS011;60113;48.762;12.302;2024-03-02T13:54:41;36.58;;;24.15;;
72209;SDS011;60113;48.762;12.302;2024-03-02T13:57:08;36.05;;;25.02;;
72209;SDS011;60113;48.762;12.302;2024-03-02T13:59:35;36.03;;;22.60;;
72209;SDS011;60113;48.762;12.302;2024-03-02T14:02:01;34.53;;;23.25;;
72209;SDS011;60113;48.762;12.302;2024-03-02T14:04:29;33.50;;;22.92;;
72209;SDS011;60113;48.762;12.302;2024-03-02T14:06:56;30.45;;;22.15;;